sensor_id;sensor_type;location;lat;lon;timestamp;P1;durP1;ratioP1;P2;durP2;ratioP2
52494;SDS011;38405;53.212;5.660;2023-02-15T00:01:43;444.88;;;37.47;;
52494;SDS011;38405;53.212;5.660;2023-02-15T00:04:11;341.73;;;34.90;;
52494;SDS011;38405;53.212;5.660;2023-02-15T00:06:38;455.73;;;40.63;;
52494;SDS011;38405;53.212;5.660;2023-02-15T00:09:04;238.38;;;32.28;;
52494;SDS011;38405;53.212;5.660;2023-02-15T00:11:29;433.65;;;35.80;;
52494;SDS011;38405;53.212;5.660;2023-02-15T00:14:05;424.63;;;36.50;;
52494;SDS011;38405;53.212;5.660;2023-02-15T00:16:40;352.98;;;33.22;;
52494;SDS011;38405;53.212;5.660;2023-02-15T00:19:07;542.28;;;37.42;;
52494;SDS011;38405;53.212;5.660;2023-02-15T00:21:34;527.47;;;41.63;;
52494;SDS011;38405;53.212;5.660;2023-02-15T00:24:01;409.27;;;34.90;;
52494;SDS011;38405;53.212;5.660;2023-02-15T00:26:28;402.58;;;32.72;;
52494;SDS011;38405;53.212;5.660;2023-02-15T00:28:54;188.90;;;26.67;;
52494;SDS011;38405;53.212;5.660;2023-02-15T00:31:23;209.18;;;29.13;;
52494;SDS011;38405;53.212;5.660;2023-02-15T00:33:49;193.60;;;26.17;;
52494;SDS011;38405;53.212;5.660;2023-02-15T00:36:15;212.05;;;28.13;;
52494;SDS011;38405;53.212;5.660;2023-02-15T00:38:40;195.75;;;26.17;;
52494;SDS011;38405;53.212;5.660;2023-02-15T00:41:06;185.70;;;25.45;;
52494;SDS011;38405;53.212;5.660;2023-02-15T00:43:33;322.85;;;35.15;;
52494;SDS011;38405;53.212;5.660;2023-02-15T00:46:00;294.92;;;30.88;;
52494;SDS011;38405;53.212;5.660;2023-02-15T00:48:27;420.63;;;38.28;;
52494;SDS011;38405;53.212;5.660;2023-02-15T00:50:53;282.80;;;28.35;;
52494;SDS011;38405;53.212;5.660;2023-02-15T00:53:20;227.63;;;30.48;;
52494;SDS011;38405;53.212;5.660;2023-02-15T00:55:46;294.25;;;30.83;;
52494;SDS011;38405;53.212;5.660;2023-02-15T00:58:13;344.75;;;35.65;;
52494;SDS011;38405;53.212;5.660;2023-02-15T01:00:40;315.98;;;32.78;;
52494;SDS011;38405;53.212;5.660;2023-02-15T01:03:07;362.33;;;34.53;;
52494;SDS011;38405;53.212;5.660;2023-02-15T01:05:33;436.42;;;38.55;;
52494;SDS011;38405;53.212;5.660;2023-02-15T01:07:58;217.88;;;32.13;;
52494;SDS011;38405;53.212;5.660;2023-02-15T01:10:25;329.00;;;34.42;;
52494;SDS011;38405;53.212;5.660;2023-02-15T01:12:51;472.00;;;40.00;;
52494;SDS011;38405;53.212;5.660;2023-02-15T01:15:18;1000.70;;;62.05;;
52494;SDS011;38405;53.212;5.660;2023-02-15T01:17:43;683.80;;;47.85;;
52494;SDS011;38405;53.212;5.660;2023-02-15T01:20:16;453.70;;;36.87;;
52494;SDS011;38405;53.212;5.660;2023-02-15T01:22:42;437.02;;;36.95;;
52494;SDS011;38405;53.212;5.660;2023-02-15T01:25:08;456.50;;;39.63;;
52494;SDS011;38405;53.212;5.660;2023-02-15T01:27:33;403.40;;;37.97;;
52494;SDS011;38405;53.212;5.660;2023-02-15T01:29:59;265.25;;;32.65;;
52494;SDS011;38405;53.212;5.660;2023-02-15T01:32:29;503.27;;;40.58;;
52494;SDS011;38405;53.212;5.660;2023-02-15T01:34:55;584.20;;;46.90;;
52494;SDS011;38405;53.212;5.660;2023-02-15T01:37:21;507.77;;;41.00;;
52494;SDS011;38405;53.212;5.660;2023-02-15T01:39:47;444.63;;;35.92;;
52494;SDS011;38405;53.212;5.660;2023-02-15T01:42:12;251.13;;;29.52;;
52494;SDS011;38405;53.212;5.660;2023-02-15T01:47:33;211.05;;;28.85;;
52494;SDS011;38405;53.212;5.660;2023-02-15T01:52:37;440.25;;;43.25;;
52494;SDS011;38405;53.212;5.660;2023-02-15T01:55:06;355.63;;;34.95;;
52494;SDS011;38405;53.212;5.660;2023-02-15T01:57:34;291.58;;;31.98;;
52494;SDS011;38405;53.212;5.660;2023-02-15T02:00:01;288.95;;;29.38;;
52494;SDS011;38405;53.212;5.660;2023-02-15T02:02:31;303.65;;;30.08;;
52494;SDS011;38405;53.212;5.660;2023-02-15T02:05:00;219.02;;;27.90;;
52494;SDS011;38405;53.212;5.660;2023-02-15T02:07:31;159.30;;;24.83;;
52494;SDS011;38405;53.212;5.660;2023-02-15T02:10:02;159.50;;;24.27;;
52494;SDS011;38405;53.212;5.660;2023-02-15T02:12:29;184.57;;;28.08;;
52494;SDS011;38405;53.212;5.660;2023-02-15T02:14:54;183.38;;;28.33;;
52494;SDS011;38405;53.212;5.660;2023-02-15T02:31:17;190.55;;;22.83;;
52494;SDS011;38405;53.212;5.660;2023-02-15T02:33:58;265.83;;;24.30;;
52494;SDS011;38405;53.212;5.660;2023-02-15T02:44:02;314.65;;;29.42;;
52494;SDS011;38405;53.212;5.660;2023-02-15T02:49:06;243.82;;;24.02;;
52494;SDS011;38405;53.212;5.660;2023-02-15T02:51:32;278.42;;;24.38;;
52494;SDS011;38405;53.212;5.660;2023-02-15T02:53:58;288.42;;;24.92;;
52494;SDS011;38405;53.212;5.660;2023-02-15T02:56:50;303.27;;;26.55;;
52494;SDS011;38405;53.212;5.660;2023-02-15T02:59:19;274.40;;;23.77;;
52494;SDS011;38405;53.212;5.660;2023-02-15T03:01:55;291.95;;;24.27;;
52494;SDS011;38405;53.212;5.660;2023-02-15T03:04:45;243.57;;;24.25;;
52494;SDS011;38405;53.212;5.660;2023-02-15T03:07:18;306.15;;;22.50;;
52494;SDS011;38405;53.212;5.660;2023-02-15T03:09:51;204.32;;;24.73;;
52494;SDS011;38405;53.212;5.660;2023-02-15T03:12:19;270.02;;;25.98;;
52494;SDS011;38405;53.212;5.660;2023-02-15T03:14:52;184.60;;;23.83;;
52494;SDS011;38405;53.212;5.660;2023-02-15T03:17:26;237.48;;;24.60;;
52494;SDS011;38405;53.212;5.660;2023-02-15T03:19:56;209.55;;;24.05;;
52494;SDS011;38405;53.212;5.660;2023-02-15T03:22:59;231.93;;;25.30;;
52494;SDS011;38405;53.212;5.660;2023-02-15T03:25:23;176.63;;;22.27;;
52494;SDS011;38405;53.212;5.660;2023-02-15T03:27:54;248.82;;;25.83;;
52494;SDS011;38405;53.212;5.660;2023-02-15T03:30:24;134.27;;;20.95;;
52494;SDS011;38405;53.212;5.660;2023-02-15T03:32:52;252.45;;;23.05;;
52494;SDS011;38405;53.212;5.660;2023-02-15T03:35:20;228.18;;;24.95;;
52494;SDS011;38405;53.212;5.660;2023-02-15T03:38:08;220.63;;;22.80;;
52494;SDS011;38405;53.212;5.660;2023-02-15T03:40:37;291.73;;;25.85;;
52494;SDS011;38405;53.212;5.660;2023-02-15T03:46:03;334.58;;;25.75;;
52494;SDS011;38405;53.212;5.660;2023-02-15T03:48:35;413.08;;;26.08;;
52494;SDS011;38405;53.212;5.660;2023-02-15T03:51:08;422.95;;;26.85;;
52494;SDS011;38405;53.212;5.660;2023-02-15T03:53:56;417.35;;;27.58;;
52494;SDS011;38405;53.212;5.660;2023-02-15T03:56:23;366.10;;;32.15;;
52494;SDS011;38405;53.212;5.660;2023-02-15T03:58:49;287.17;;;25.58;;
52494;SDS011;38405;53.212;5.660;2023-02-15T04:01:34;339.92;;;25.30;;
52494;SDS011;38405;53.212;5.660;2023-02-15T04:04:38;271.58;;;24.88;;
52494;SDS011;38405;53.212;5.660;2023-02-15T04:07:08;394.67;;;29.42;;
52494;SDS011;38405;53.212;5.660;2023-02-15T04:09:34;295.90;;;25.13;;
52494;SDS011;38405;53.212;5.660;2023-02-15T04:12:18;297.00;;;24.88;;
52494;SDS011;38405;53.212;5.660;2023-02-15T04:14:44;187.60;;;20.65;;
52494;SDS011;38405;53.212;5.660;2023-02-15T04:17:29;182.63;;;22.65;;
52494;SDS011;38405;53.212;5.660;2023-02-15T04:19:54;213.90;;;24.67;;
52494;SDS011;38405;53.212;5.660;2023-02-15T04:22:39;170.73;;;22.67;;
52494;SDS011;38405;53.212;5.660;2023-02-15T04:25:23;167.77;;;19.92;;
52494;SDS011;38405;53.212;5.660;2023-02-15T04:27:49;234.23;;;21.45;;
52494;SDS011;38405;53.212;5.660;2023-02-15T04:30:17;129.50;;;20.45;;
52494;SDS011;38405;53.212;5.660;2023-02-15T04:32:44;223.25;;;21.60;;
52494;SDS011;38405;53.212;5.660;2023-02-15T04:35:11;232.85;;;25.58;;
52494;SDS011;38405;53.212;5.660;2023-02-15T04:37:37;195.23;;;22.92;;
52494;SDS011;38405;53.212;5.660;2023-02-15T04:40:04;188.27;;;22.30;;
52494;SDS011;38405;53.212;5.660;2023-02-15T04:42:31;183.00;;;25.50;;
52494;SDS011;38405;53.212;5.660;2023-02-15T04:44:57;198.30;;;24.90;;
52494;SDS011;38405;53.212;5.660;2023-02-15T04:47:23;147.38;;;22.65;;
52494;SDS011;38405;53.212;5.660;2023-02-15T04:49:49;146.23;;;23.55;;
52494;SDS011;38405;53.212;5.660;2023-02-15T04:52:14;144.57;;;21.85;;
52494;SDS011;38405;53.212;5.660;2023-02-15T04:54:42;140.52;;;23.00;;
52494;SDS011;38405;53.212;5.660;2023-02-15T04:57:07;156.48;;;24.83;;
52494;SDS011;38405;53.212;5.660;2023-02-15T04:59:33;178.40;;;23.40;;
52494;SDS011;38405;53.212;5.660;2023-02-15T05:01:59;161.75;;;22.75;;
52494;SDS011;38405;53.212;5.660;2023-02-15T05:04:24;124.05;;;24.63;;
52494;SDS011;38405;53.212;5.660;2023-02-15T05:06:50;202.75;;;22.10;;
52494;SDS011;38405;53.212;5.660;2023-02-15T05:09:16;103.65;;;22.33;;
52494;SDS011;38405;53.212;5.660;2023-02-15T05:11:41;166.40;;;23.35;;
52494;SDS011;38405;53.212;5.660;2023-02-15T05:14:07;130.32;;;22.67;;
52494;SDS011;38405;53.212;5.660;2023-02-15T05:16:33;145.05;;;23.80;;
52494;SDS011;38405;53.212;5.660;2023-02-15T05:18:59;162.07;;;24.55;;
52494;SDS011;38405;53.212;5.660;2023-02-15T05:21:24;171.95;;;25.30;;
52494;SDS011;38405;53.212;5.660;2023-02-15T05:23:50;166.32;;;22.00;;
52494;SDS011;38405;53.212;5.660;2023-02-15T05:26:17;210.77;;;26.17;;
52494;SDS011;38405;53.212;5.660;2023-02-15T05:29:05;151.55;;;22.70;;
52494;SDS011;38405;53.212;5.660;2023-02-15T05:31:32;208.00;;;27.38;;
52494;SDS011;38405;53.212;5.660;2023-02-15T05:33:58;227.48;;;29.35;;
52494;SDS011;38405;53.212;5.660;2023-02-15T05:36:24;185.70;;;23.85;;
52494;SDS011;38405;53.212;5.660;2023-02-15T05:38:50;211.52;;;27.75;;
52494;SDS011;38405;53.212;5.660;2023-02-15T05:41:15;209.43;;;28.20;;
52494;SDS011;38405;53.212;5.660;2023-02-15T05:43:41;216.65;;;25.50;;
52494;SDS011;38405;53.212;5.660;2023-02-15T05:46:07;195.95;;;27.10;;
52494;SDS011;38405;53.212;5.660;2023-02-15T05:48:33;271.40;;;30.13;;
52494;SDS011;38405;53.212;5.660;2023-02-15T05:51:00;263.05;;;28.48;;
52494;SDS011;38405;53.212;5.660;2023-02-15T05:53:28;273.48;;;26.50;;
52494;SDS011;38405;53.212;5.660;2023-02-15T05:55:54;330.25;;;31.42;;
52494;SDS011;38405;53.212;5.660;2023-02-15T05:58:27;347.83;;;36.42;;
52494;SDS011;38405;53.212;5.660;2023-02-15T06:00:53;327.60;;;32.55;;
52494;SDS011;38405;53.212;5.660;2023-02-15T06:03:19;381.88;;;37.13;;
52494;SDS011;38405;53.212;5.660;2023-02-15T06:05:46;348.05;;;31.38;;
52494;SDS011;38405;53.212;5.660;2023-02-15T06:08:11;381.15;;;35.15;;
52494;SDS011;38405;53.212;5.660;2023-02-15T06:10:37;327.80;;;32.13;;
52494;SDS011;38405;53.212;5.660;2023-02-15T06:13:02;360.83;;;31.90;;
52494;SDS011;38405;53.212;5.660;2023-02-15T06:15:28;318.48;;;31.95;;
52494;SDS011;38405;53.212;5.660;2023-02-15T06:17:53;354.20;;;33.72;;
52494;SDS011;38405;53.212;5.660;2023-02-15T06:20:19;265.90;;;29.05;;
52494;SDS011;38405;53.212;5.660;2023-02-15T06:22:45;298.63;;;34.05;;
52494;SDS011;38405;53.212;5.660;2023-02-15T06:25:11;194.65;;;26.80;;
52494;SDS011;38405;53.212;5.660;2023-02-15T06:27:37;217.60;;;24.92;;
52494;SDS011;38405;53.212;5.660;2023-02-15T06:30:03;311.45;;;30.40;;
52494;SDS011;38405;53.212;5.660;2023-02-15T06:32:31;356.80;;;32.95;;
52494;SDS011;38405;53.212;5.660;2023-02-15T06:34:57;370.35;;;35.33;;
52494;SDS011;38405;53.212;5.660;2023-02-15T06:37:22;297.17;;;30.58;;
52494;SDS011;38405;53.212;5.660;2023-02-15T06:39:48;337.35;;;35.53;;
52494;SDS011;38405;53.212;5.660;2023-02-15T06:42:13;372.13;;;33.08;;
52494;SDS011;38405;53.212;5.660;2023-02-15T06:44:39;282.08;;;30.40;;
52494;SDS011;38405;53.212;5.660;2023-02-15T06:47:05;277.50;;;30.83;;
52494;SDS011;38405;53.212;5.660;2023-02-15T06:49:30;254.45;;;31.20;;
52494;SDS011;38405;53.212;5.660;2023-02-15T06:51:56;707.50;;;50.20;;
52494;SDS011;38405;53.212;5.660;2023-02-15T06:54:21;220.38;;;31.33;;
52494;SDS011;38405;53.212;5.660;2023-02-15T06:56:47;331.45;;;31.52;;
52494;SDS011;38405;53.212;5.660;2023-02-15T06:59:13;270.92;;;25.95;;
52494;SDS011;38405;53.212;5.660;2023-02-15T07:01:38;276.40;;;31.10;;
52494;SDS011;38405;53.212;5.660;2023-02-15T07:04:04;295.05;;;34.50;;
52494;SDS011;38405;53.212;5.660;2023-02-15T07:06:33;294.60;;;34.83;;
52494;SDS011;38405;53.212;5.660;2023-02-15T07:08:58;221.32;;;29.50;;
52494;SDS011;38405;53.212;5.660;2023-02-15T07:11:24;329.35;;;32.58;;
52494;SDS011;38405;53.212;5.660;2023-02-15T07:14:26;253.95;;;30.55;;
52494;SDS011;38405;53.212;5.660;2023-02-15T07:16:51;302.98;;;34.67;;
52494;SDS011;38405;53.212;5.660;2023-02-15T07:19:17;334.65;;;36.53;;
52494;SDS011;38405;53.212;5.660;2023-02-15T07:21:42;282.40;;;30.42;;
52494;SDS011;38405;53.212;5.660;2023-02-15T07:24:10;388.48;;;35.20;;
52494;SDS011;38405;53.212;5.660;2023-02-15T07:26:36;349.67;;;35.88;;
52494;SDS011;38405;53.212;5.660;2023-02-15T07:29:01;347.98;;;33.38;;
52494;SDS011;38405;53.212;5.660;2023-02-15T07:31:27;282.42;;;31.90;;
52494;SDS011;38405;53.212;5.660;2023-02-15T07:33:53;377.92;;;36.67;;
52494;SDS011;38405;53.212;5.660;2023-02-15T07:36:19;338.88;;;34.70;;
52494;SDS011;38405;53.212;5.660;2023-02-15T07:38:44;280.65;;;32.13;;
52494;SDS011;38405;53.212;5.660;2023-02-15T07:41:11;320.17;;;33.30;;
52494;SDS011;38405;53.212;5.660;2023-02-15T07:43:39;208.65;;;29.08;;
52494;SDS011;38405;53.212;5.660;2023-02-15T07:46:07;237.15;;;35.47;;
52494;SDS011;38405;53.212;5.660;2023-02-15T07:48:36;276.27;;;31.40;;
52494;SDS011;38405;53.212;5.660;2023-02-15T07:51:04;240.95;;;29.63;;
52494;SDS011;38405;53.212;5.660;2023-02-15T07:53:32;210.55;;;30.38;;
52494;SDS011;38405;53.212;5.660;2023-02-15T07:55:59;209.02;;;29.83;;
52494;SDS011;38405;53.212;5.660;2023-02-15T07:58:25;235.70;;;33.10;;
52494;SDS011;38405;53.212;5.660;2023-02-15T08:01:11;290.02;;;34.72;;
52494;SDS011;38405;53.212;5.660;2023-02-15T08:03:36;274.70;;;33.53;;
52494;SDS011;38405;53.212;5.660;2023-02-15T08:06:02;284.27;;;32.60;;
52494;SDS011;38405;53.212;5.660;2023-02-15T08:08:28;321.63;;;34.30;;
52494;SDS011;38405;53.212;5.660;2023-02-15T08:11:04;314.33;;;38.35;;
52494;SDS011;38405;53.212;5.660;2023-02-15T08:14:01;308.23;;;34.90;;
52494;SDS011;38405;53.212;5.660;2023-02-15T08:19:12;267.30;;;34.67;;
52494;SDS011;38405;53.212;5.660;2023-02-15T08:21:43;272.35;;;33.13;;
52494;SDS011;38405;53.212;5.660;2023-02-15T08:24:11;294.92;;;36.45;;
52494;SDS011;38405;53.212;5.660;2023-02-15T08:26:38;243.27;;;33.92;;
52494;SDS011;38405;53.212;5.660;2023-02-15T08:29:05;194.90;;;32.58;;
52494;SDS011;38405;53.212;5.660;2023-02-15T08:31:32;152.95;;;32.03;;
52494;SDS011;38405;53.212;5.660;2023-02-15T08:33:58;151.10;;;30.90;;
52494;SDS011;38405;53.212;5.660;2023-02-15T08:36:25;109.40;;;30.60;;
52494;SDS011;38405;53.212;5.660;2023-02-15T08:38:54;107.05;;;28.73;;
52494;SDS011;38405;53.212;5.660;2023-02-15T08:41:21;108.70;;;30.83;;
52494;SDS011;38405;53.212;5.660;2023-02-15T08:43:49;66.95;;;31.88;;
52494;SDS011;38405;53.212;5.660;2023-02-15T08:46:18;66.95;;;32.72;;
52494;SDS011;38405;53.212;5.660;2023-02-15T08:48:45;68.60;;;33.88;;
52494;SDS011;38405;53.212;5.660;2023-02-15T08:51:13;61.72;;;33.88;;
52494;SDS011;38405;53.212;5.660;2023-02-15T08:53:44;63.08;;;32.40;;
52494;SDS011;38405;53.212;5.660;2023-02-15T08:56:13;61.78;;;33.75;;
52494;SDS011;38405;53.212;5.660;2023-02-15T08:58:39;61.92;;;33.13;;
52494;SDS011;38405;53.212;5.660;2023-02-15T09:01:11;73.85;;;35.10;;
52494;SDS011;38405;53.212;5.660;2023-02-15T09:03:39;56.17;;;30.40;;
52494;SDS011;38405;53.212;5.660;2023-02-15T09:06:08;63.28;;;34.35;;
52494;SDS011;38405;53.212;5.660;2023-02-15T09:08:33;58.05;;;32.67;;
52494;SDS011;38405;53.212;5.660;2023-02-15T09:14:08;53.78;;;31.58;;
52494;SDS011;38405;53.212;5.660;2023-02-15T09:16:39;58.75;;;32.03;;
52494;SDS011;38405;53.212;5.660;2023-02-15T09:19:06;65.93;;;33.95;;
52494;SDS011;38405;53.212;5.660;2023-02-15T09:21:33;56.13;;;31.77;;
52494;SDS011;38405;53.212;5.660;2023-02-15T09:24:01;55.22;;;31.52;;
52494;SDS011;38405;53.212;5.660;2023-02-15T09:26:30;53.30;;;30.75;;
52494;SDS011;38405;53.212;5.660;2023-02-15T09:28:58;57.78;;;33.25;;
52494;SDS011;38405;53.212;5.660;2023-02-15T09:31:27;52.65;;;30.90;;
52494;SDS011;38405;53.212;5.660;2023-02-15T09:33:53;56.80;;;33.10;;
52494;SDS011;38405;53.212;5.660;2023-02-15T09:36:23;52.55;;;31.17;;
52494;SDS011;38405;53.212;5.660;2023-02-15T09:38:58;57.65;;;32.80;;
52494;SDS011;38405;53.212;5.660;2023-02-15T09:44:31;50.03;;;31.75;;
52494;SDS011;38405;53.212;5.660;2023-02-15T10:05:53;51.65;;;30.02;;
52494;SDS011;38405;53.212;5.660;2023-02-15T10:14:21;45.83;;;27.83;;
52494;SDS011;38405;53.212;5.660;2023-02-15T10:23:04;43.22;;;25.27;;
52494;SDS011;38405;53.212;5.660;2023-02-15T10:27:46;42.05;;;25.42;;
52494;SDS011;38405;53.212;5.660;2023-02-15T10:30:27;44.38;;;26.70;;
52494;SDS011;38405;53.212;5.660;2023-02-15T10:33:01;43.80;;;26.20;;
52494;SDS011;38405;53.212;5.660;2023-02-15T10:35:47;43.50;;;26.40;;
52494;SDS011;38405;53.212;5.660;2023-02-15T10:41:17;41.03;;;25.90;;
52494;SDS011;38405;53.212;5.660;2023-02-15T11:08:00;41.28;;;24.52;;
52494;SDS011;38405;53.212;5.660;2023-02-15T11:13:18;41.45;;;25.23;;
52494;SDS011;38405;53.212;5.660;2023-02-15T11:18:25;44.83;;;27.05;;
52494;SDS011;38405;53.212;5.660;2023-02-15T11:23:27;44.53;;;27.10;;
52494;SDS011;38405;53.212;5.660;2023-02-15T11:25:57;43.75;;;27.73;;
52494;SDS011;38405;53.212;5.660;2023-02-15T11:28:27;48.40;;;29.00;;
52494;SDS011;38405;53.212;5.660;2023-02-15T11:31:10;49.85;;;29.13;;
52494;SDS011;38405;53.212;5.660;2023-02-15T11:33:43;43.25;;;27.33;;
52494;SDS011;38405;53.212;5.660;2023-02-15T11:36:24;50.03;;;28.42;;
52494;SDS011;38405;53.212;5.660;2023-02-15T11:38:56;45.88;;;26.63;;
52494;SDS011;38405;53.212;5.660;2023-02-15T11:41:28;46.20;;;27.50;;
52494;SDS011;38405;53.212;5.660;2023-02-15T11:44:15;44.25;;;27.90;;
52494;SDS011;38405;53.212;5.660;2023-02-15T11:46:46;45.50;;;26.98;;
52494;SDS011;38405;53.212;5.660;2023-02-15T11:49:22;53.60;;;28.70;;
52494;SDS011;38405;53.212;5.660;2023-02-15T11:51:54;42.88;;;28.67;;
52494;SDS011;38405;53.212;5.660;2023-02-15T11:54:24;50.67;;;29.48;;
52494;SDS011;38405;53.212;5.660;2023-02-15T11:56:54;53.47;;;30.90;;
52494;SDS011;38405;53.212;5.660;2023-02-15T11:59:33;50.38;;;30.95;;
52494;SDS011;38405;53.212;5.660;2023-02-15T12:02:02;49.55;;;30.05;;
52494;SDS011;38405;53.212;5.660;2023-02-15T12:04:40;47.17;;;30.60;;
52494;SDS011;38405;53.212;5.660;2023-02-15T12:07:17;49.13;;;31.38;;
52494;SDS011;38405;53.212;5.660;2023-02-15T12:10:22;43.78;;;28.13;;
52494;SDS011;38405;53.212;5.660;2023-02-15T12:15:45;45.47;;;28.48;;
52494;SDS011;38405;53.212;5.660;2023-02-15T12:20:49;45.95;;;28.25;;
52494;SDS011;38405;53.212;5.660;2023-02-15T12:23:16;44.33;;;28.23;;
52494;SDS011;38405;53.212;5.660;2023-02-15T12:28:36;46.47;;;28.38;;
52494;SDS011;38405;53.212;5.660;2023-02-15T12:31:21;49.50;;;28.50;;
52494;SDS011;38405;53.212;5.660;2023-02-15T12:33:49;53.83;;;30.27;;
52494;SDS011;38405;53.212;5.660;2023-02-15T12:36:19;43.85;;;28.05;;
52494;SDS011;38405;53.212;5.660;2023-02-15T12:41:37;51.08;;;29.92;;
52494;SDS011;38405;53.212;5.660;2023-02-15T12:44:27;44.50;;;29.40;;
52494;SDS011;38405;53.212;5.660;2023-02-15T12:47:02;48.22;;;28.25;;
52494;SDS011;38405;53.212;5.660;2023-02-15T12:49:30;52.70;;;28.05;;
52494;SDS011;38405;53.212;5.660;2023-02-15T12:52:03;49.70;;;28.65;;
52494;SDS011;38405;53.212;5.660;2023-02-15T12:54:45;50.97;;;28.45;;
52494;SDS011;38405;53.212;5.660;2023-02-15T12:57:33;43.50;;;26.67;;
52494;SDS011;38405;53.212;5.660;2023-02-15T13:00:03;44.85;;;28.45;;
52494;SDS011;38405;53.212;5.660;2023-02-15T13:02:35;48.58;;;27.50;;
52494;SDS011;38405;53.212;5.660;2023-02-15T13:05:18;45.10;;;27.38;;
52494;SDS011;38405;53.212;5.660;2023-02-15T13:07:59;45.80;;;28.45;;
52494;SDS011;38405;53.212;5.660;2023-02-15T13:10:53;46.70;;;26.63;;
52494;SDS011;38405;53.212;5.660;2023-02-15T13:13:21;49.15;;;28.75;;
52494;SDS011;38405;53.212;5.660;2023-02-15T13:15:50;47.28;;;28.23;;
52494;SDS011;38405;53.212;5.660;2023-02-15T13:23:36;47.00;;;28.77;;
52494;SDS011;38405;53.212;5.660;2023-02-15T13:26:04;47.25;;;29.48;;
52494;SDS011;38405;53.212;5.660;2023-02-15T13:28:39;42.95;;;27.95;;
52494;SDS011;38405;53.212;5.660;2023-02-15T13:31:13;46.17;;;29.58;;
52494;SDS011;38405;53.212;5.660;2023-02-15T13:33:43;45.33;;;28.35;;
52494;SDS011;38405;53.212;5.660;2023-02-15T13:36:23;48.00;;;29.73;;
52494;SDS011;38405;53.212;5.660;2023-02-15T13:52:24;47.67;;;29.27;;
52494;SDS011;38405;53.212;5.660;2023-02-15T13:58:21;48.28;;;29.33;;
52494;SDS011;38405;53.212;5.660;2023-02-15T14:06:32;47.13;;;27.95;;
52494;SDS011;38405;53.212;5.660;2023-02-15T14:09:40;48.90;;;28.48;;
52494;SDS011;38405;53.212;5.660;2023-02-15T14:23:43;51.65;;;30.95;;
52494;SDS011;38405;53.212;5.660;2023-02-15T14:28:49;51.85;;;29.92;;
52494;SDS011;38405;53.212;5.660;2023-02-15T14:31:21;52.17;;;31.10;;
52494;SDS011;38405;53.212;5.660;2023-02-15T14:33:55;48.35;;;30.42;;
52494;SDS011;38405;53.212;5.660;2023-02-15T14:36:22;51.45;;;31.38;;
52494;SDS011;38405;53.212;5.660;2023-02-15T14:41:56;50.28;;;30.38;;
52494;SDS011;38405;53.212;5.660;2023-02-15T14:44:32;50.28;;;29.80;;
52494;SDS011;38405;53.212;5.660;2023-02-15T14:47:14;51.20;;;29.98;;
52494;SDS011;38405;53.212;5.660;2023-02-15T14:49:46;53.30;;;30.38;;
52494;SDS011;38405;53.212;5.660;2023-02-15T14:52:12;48.17;;;29.60;;
52494;SDS011;38405;53.212;5.660;2023-02-15T15:02:39;50.15;;;30.30;;
52494;SDS011;38405;53.212;5.660;2023-02-15T15:07:43;51.28;;;31.88;;
52494;SDS011;38405;53.212;5.660;2023-02-15T15:12:55;48.47;;;30.92;;
52494;SDS011;38405;53.212;5.660;2023-02-15T15:17:58;52.65;;;32.72;;
52494;SDS011;38405;53.212;5.660;2023-02-15T15:25:57;47.78;;;30.27;;
52494;SDS011;38405;53.212;5.660;2023-02-15T15:42:35;53.53;;;31.10;;
52494;SDS011;38405;53.212;5.660;2023-02-15T15:45:26;51.88;;;31.02;;
52494;SDS011;38405;53.212;5.660;2023-02-15T15:51:00;50.10;;;32.03;;
52494;SDS011;38405;53.212;5.660;2023-02-15T15:53:32;52.80;;;33.00;;
52494;SDS011;38405;53.212;5.660;2023-02-15T15:56:05;58.72;;;33.85;;
52494;SDS011;38405;53.212;5.660;2023-02-15T15:58:33;60.83;;;33.40;;
52494;SDS011;38405;53.212;5.660;2023-02-15T16:01:04;60.08;;;34.75;;
52494;SDS011;38405;53.212;5.660;2023-02-15T16:03:36;56.47;;;33.30;;
52494;SDS011;38405;53.212;5.660;2023-02-15T16:06:02;58.80;;;34.35;;
52494;SDS011;38405;53.212;5.660;2023-02-15T16:08:32;53.88;;;33.10;;
52494;SDS011;38405;53.212;5.660;2023-02-15T16:11:14;58.08;;;35.88;;
52494;SDS011;38405;53.212;5.660;2023-02-15T16:13:49;63.83;;;34.97;;
52494;SDS011;38405;53.212;5.660;2023-02-15T16:16:22;56.58;;;34.40;;
52494;SDS011;38405;53.212;5.660;2023-02-15T16:18:53;56.33;;;33.83;;
52494;SDS011;38405;53.212;5.660;2023-02-15T16:21:22;59.60;;;34.88;;
52494;SDS011;38405;53.212;5.660;2023-02-15T16:23:59;61.03;;;36.08;;
52494;SDS011;38405;53.212;5.660;2023-02-15T16:29:28;66.75;;;35.70;;
52494;SDS011;38405;53.212;5.660;2023-02-15T16:31:58;62.50;;;35.97;;
52494;SDS011;38405;53.212;5.660;2023-02-15T16:34:24;60.50;;;35.42;;
52494;SDS011;38405;53.212;5.660;2023-02-15T16:37:11;65.18;;;36.40;;
52494;SDS011;38405;53.212;5.660;2023-02-15T16:39:40;66.93;;;36.88;;
52494;SDS011;38405;53.212;5.660;2023-02-15T16:42:07;66.07;;;37.35;;
52494;SDS011;38405;53.212;5.660;2023-02-15T16:44:34;68.30;;;38.38;;
52494;SDS011;38405;53.212;5.660;2023-02-15T16:46:59;66.90;;;38.13;;
52494;SDS011;38405;53.212;5.660;2023-02-15T16:49:26;64.00;;;37.38;;
52494;SDS011;38405;53.212;5.660;2023-02-15T16:52:03;60.00;;;37.13;;
52494;SDS011;38405;53.212;5.660;2023-02-15T16:54:31;71.97;;;40.78;;
52494;SDS011;38405;53.212;5.660;2023-02-15T16:56:58;61.70;;;36.58;;
52494;SDS011;38405;53.212;5.660;2023-02-15T16:59:57;64.22;;;38.90;;
52494;SDS011;38405;53.212;5.660;2023-02-15T17:02:17;71.35;;;39.28;;
52494;SDS011;38405;53.212;5.660;2023-02-15T17:07:30;73.43;;;39.67;;
52494;SDS011;38405;53.212;5.660;2023-02-15T17:09:58;69.47;;;40.22;;
52494;SDS011;38405;53.212;5.660;2023-02-15T17:15:33;73.35;;;40.78;;
52494;SDS011;38405;53.212;5.660;2023-02-15T17:18:21;71.32;;;41.17;;
52494;SDS011;38405;53.212;5.660;2023-02-15T17:20:47;70.68;;;40.92;;
52494;SDS011;38405;53.212;5.660;2023-02-15T17:25:46;67.47;;;38.85;;
52494;SDS011;38405;53.212;5.660;2023-02-15T17:28:30;75.00;;;41.72;;
52494;SDS011;38405;53.212;5.660;2023-02-15T17:30:56;72.07;;;40.90;;
52494;SDS011;38405;53.212;5.660;2023-02-15T17:36:12;71.22;;;41.83;;
52494;SDS011;38405;53.212;5.660;2023-02-15T17:38:42;70.93;;;41.92;;
52494;SDS011;38405;53.212;5.660;2023-02-15T17:41:32;75.75;;;43.83;;
52494;SDS011;38405;53.212;5.660;2023-02-15T17:43:59;75.70;;;44.75;;
52494;SDS011;38405;53.212;5.660;2023-02-15T17:46:26;70.95;;;42.60;;
52494;SDS011;38405;53.212;5.660;2023-02-15T17:49:00;72.05;;;42.13;;
52494;SDS011;38405;53.212;5.660;2023-02-15T17:51:26;76.57;;;43.70;;
52494;SDS011;38405;53.212;5.660;2023-02-15T17:53:52;76.88;;;44.53;;
52494;SDS011;38405;53.212;5.660;2023-02-15T17:56:37;71.70;;;43.05;;
52494;SDS011;38405;53.212;5.660;2023-02-15T17:59:06;73.78;;;43.90;;
52494;SDS011;38405;53.212;5.660;2023-02-15T18:01:33;75.80;;;45.03;;
52494;SDS011;38405;53.212;5.660;2023-02-15T18:04:27;72.97;;;43.78;;
52494;SDS011;38405;53.212;5.660;2023-02-15T18:07:11;70.30;;;43.13;;
52494;SDS011;38405;53.212;5.660;2023-02-15T18:09:56;67.13;;;39.35;;
52494;SDS011;38405;53.212;5.660;2023-02-15T18:12:40;72.78;;;44.00;;